Yeager Airport
KCRW : rendu visible

Aérodrome :











RETROUVEZ-NOUS SUR...

 
LOGIN :

S'inscrire | Disclaimer

   EN    FR    IT 

 









Légende :    VFR   VFR Marginal   IFR   IFR Intensif   IFR Très Intensif
Visi : 
Plafond : 
>= 8 km
>= 3000ft
5 à 8 km
1000 à 3000 ft
1500m à 5 km
500 à 1000 ft
800 à 1500m
200 à 500 ft
< 800m
< 200 ft
Symboles :   Orages  Brouillard  Fortes neiges  Fortes précipitations  Vent > 20 kt






- Altitude de l'aérodrome : 981 ft
- Code IATA : CRW


KCRW - Yeager

DERNIER METAR :
  • 150654Z 00000KT 10SM CLR M02/M04 A3029 RMK AO2 SLP261 T10221039

METARs EXPIRÉS :
  • 150554Z 00000KT 10SM CLR M02/M05 A3030 RMK AO2 SLP266 T10171050 10039 21022 51004
  • 150454Z 00000KT 10SM CLR M02/M04 A3030 RMK AO2 SLP265 T10221044 400941072

TAF KCRW
Valide du 15 à 06h jusqu'au 16 à 06h UTC


150527Z 1506/1606 00000KT P6SM SCT200
FM151800 34004KT P6SM FEW200
FM160500 04004KT P6SM FEW015



MET'MAP, la Météo Aéronautique d'un coup d'oeil ! - Copyright ORBIFLY Décembre 2007 - Disclaimer

ORBIFLY MET'MAP TEAM :

Programmation & Développement : Alexandra Zaïnal
Conception & Développement : Baudouin d'Aumeries
Co-Programmation & Développement : Marc-Olivier Méhu
Soutien technique & logistique : Manuel Goepfert

Contact : metmap@orbifly.com




SOURCES & CREDITS :

   NOAA       Earth
Advisory